XQI weather

Xiquipilli Airport
Emiliano Zapata, Tabasco, Mexico

Public forecast

Using degrees Celsius for public forecast. Weather courtesy of forecast.io.

Closest aviation weather report (METAR) to Xiquipilli Airport

Report is more than 2 hours old.

Closest report is Palenque International Airport, 27.4 nm (50.7 km) SW. Retrieved 2019/12/12 00:53 UTC (5 hours ago):

MMPQ 120053Z 00000KT 2SM -RA OVC030TCU 22/21 A2998 RMK 8/2//

Closest aviation forecast (TAF) to Xiquipilli Airport

Forecast is more than 6 hours old.

Closest forecast is Palenque International Airport, 27.4 nm (50.7 km) SW. Retrieved 2019/12/11 18:49 UTC (11 hours ago):

TAF MMPQ 111649Z 1118/1218 32015KT P6SM BKN025 OVC070 TEMPO 1121/1201 4SM -RA FM120300 00000KT 3SM HZ OVC010 FM120900 25010KT 1SM BR OVC005 FM121600 23010KT 3SM HZ BKN010